sensor_id;sensor_type;location;lat;lon;timestamp;pressure;altitude;pressure_sealevel;temperature;humidity
71601;BME280;59446;52.192;4.628;2022-11-15T00:01:26;100833.75;;;16.97;58.10
71601;BME280;59446;52.192;4.628;2022-11-15T00:03:51;100831.03;;;16.98;57.69
71601;BME280;59446;52.192;4.628;2022-11-15T00:06:17;100837.97;;;17.00;57.72
71601;BME280;59446;52.192;4.628;2022-11-15T00:08:43;100835.28;;;17.01;57.83
71601;BME280;59446;52.192;4.628;2022-11-15T00:11:10;100837.94;;;17.01;57.89
71601;BME280;59446;52.192;4.628;2022-11-15T00:13:36;100832.59;;;17.03;58.14
71601;BME280;59446;52.192;4.628;2022-11-15T00:16:02;100838.84;;;17.00;58.33
71601;BME280;59446;52.192;4.628;2022-11-15T00:18:28;100835.22;;;17.03;57.81
71601;BME280;59446;52.192;4.628;2022-11-15T00:20:54;100839.75;;;16.99;58.47
71601;BME280;59446;52.192;4.628;2022-11-15T00:23:20;100833.66;;;16.98;58.09
71601;BME280;59446;52.192;4.628;2022-11-15T00:25:45;100824.91;;;16.98;58.19
71601;BME280;59446;52.192;4.628;2022-11-15T00:28:11;100829.59;;;16.93;58.05
71601;BME280;59446;52.192;4.628;2022-11-15T00:30:36;100819.84;;;16.95;58.12
71601;BME280;59446;52.192;4.628;2022-11-15T00:33:03;100821.69;;;16.93;58.12
71601;BME280;59446;52.192;4.628;2022-11-15T00:35:31;100807.34;;;16.98;58.32
71601;BME280;59446;52.192;4.628;2022-11-15T00:37:57;100816.00;;;17.01;58.48
71601;BME280;59446;52.192;4.628;2022-11-15T00:40:22;100815.41;;;16.95;57.84
71601;BME280;59446;52.192;4.628;2022-11-15T00:42:47;100813.63;;;16.96;58.20
71601;BME280;59446;52.192;4.628;2022-11-15T00:45:13;100816.25;;;16.96;58.25
71601;BME280;59446;52.192;4.628;2022-11-15T00:47:38;100808.38;;;16.96;58.84
71601;BME280;59446;52.192;4.628;2022-11-15T00:50:04;100799.72;;;16.94;58.64
71601;BME280;59446;52.192;4.628;2022-11-15T00:52:29;100800.66;;;16.93;58.55
71601;BME280;59446;52.192;4.628;2022-11-15T00:54:55;100793.69;;;16.92;58.29
71601;BME280;59446;52.192;4.628;2022-11-15T00:57:20;100792.19;;;16.88;58.58
71601;BME280;59446;52.192;4.628;2022-11-15T00:59:45;100791.25;;;16.89;58.40
71601;BME280;59446;52.192;4.628;2022-11-15T01:02:11;100792.09;;;16.89;58.42
71601;BME280;59446;52.192;4.628;2022-11-15T01:04:36;100793.13;;;16.87;58.84
71601;BME280;59446;52.192;4.628;2022-11-15T01:07:02;100791.25;;;16.89;58.70
71601;BME280;59446;52.192;4.628;2022-11-15T01:09:27;100797.44;;;16.88;58.56
71601;BME280;59446;52.192;4.628;2022-11-15T01:11:53;100795.66;;;16.88;58.76
71601;BME280;59446;52.192;4.628;2022-11-15T01:14:18;100797.63;;;16.85;58.77
71601;BME280;59446;52.192;4.628;2022-11-15T01:16:43;100793.13;;;16.87;58.75
71601;BME280;59446;52.192;4.628;2022-11-15T01:19:09;100785.22;;;16.87;58.47
71601;BME280;59446;52.192;4.628;2022-11-15T01:21:34;100781.91;;;16.83;58.56
71601;BME280;59446;52.192;4.628;2022-11-15T01:24:00;100786.06;;;16.87;58.82
71601;BME280;59446;52.192;4.628;2022-11-15T01:26:25;100776.56;;;16.85;58.82
71601;BME280;59446;52.192;4.628;2022-11-15T01:28:51;100769.63;;;16.84;58.83
71601;BME280;59446;52.192;4.628;2022-11-15T01:31:20;100777.59;;;16.82;59.03
71601;BME280;59446;52.192;4.628;2022-11-15T01:33:47;100772.44;;;16.81;59.16
71601;BME280;59446;52.192;4.628;2022-11-15T01:36:18;100766.06;;;16.85;59.00
71601;BME280;59446;52.192;4.628;2022-11-15T01:38:44;100758.25;;;16.83;58.72
71601;BME280;59446;52.192;4.628;2022-11-15T01:41:17;100765.53;;;16.78;58.93
71601;BME280;59446;52.192;4.628;2022-11-15T01:43:43;100769.63;;;16.84;59.19
71601;BME280;59446;52.192;4.628;2022-11-15T01:48:43;100755.72;;;16.82;59.01
71601;BME280;59446;52.192;4.628;2022-11-15T01:51:11;100748.13;;;16.76;59.27
71601;BME280;59446;52.192;4.628;2022-11-15T01:53:40;100747.22;;;16.77;58.93
71601;BME280;59446;52.192;4.628;2022-11-15T01:56:11;100748.91;;;16.78;58.77
71601;BME280;59446;52.192;4.628;2022-11-15T01:58:40;100747.06;;;16.80;59.06
71601;BME280;59446;52.192;4.628;2022-11-15T02:01:06;100739.31;;;16.77;58.77
71601;BME280;59446;52.192;4.628;2022-11-15T02:03:38;100744.56;;;16.77;58.85
71601;BME280;59446;52.192;4.628;2022-11-15T02:06:05;100735.75;;;16.78;59.06
71601;BME280;59446;52.192;4.628;2022-11-15T02:08:31;100733.97;;;16.78;58.86
71601;BME280;59446;52.192;4.628;2022-11-15T02:10:56;100728.66;;;16.80;59.07
71601;BME280;59446;52.192;4.628;2022-11-15T02:13:22;100722.03;;;16.73;59.03
71601;BME280;59446;52.192;4.628;2022-11-15T02:19:05;100713.19;;;16.74;59.08
71601;BME280;59446;52.192;4.628;2022-11-15T02:22:10;100707.84;;;16.75;58.82
71601;BME280;59446;52.192;4.628;2022-11-15T02:27:31;100700.91;;;16.74;58.83
71601;BME280;59446;52.192;4.628;2022-11-15T02:30:20;100699.03;;;16.76;59.19
71601;BME280;59446;52.192;4.628;2022-11-15T02:32:50;100692.16;;;16.74;58.66
71601;BME280;59446;52.192;4.628;2022-11-15T02:35:30;100688.00;;;16.70;59.15
71601;BME280;59446;52.192;4.628;2022-11-15T02:38:08;100683.78;;;16.67;59.58
71601;BME280;59446;52.192;4.628;2022-11-15T02:41:14;100683.03;;;16.65;59.50
71601;BME280;59446;52.192;4.628;2022-11-15T02:43:47;100687.16;;;16.69;59.58
71601;BME280;59446;52.192;4.628;2022-11-15T02:46:39;100685.66;;;16.65;59.41
71601;BME280;59446;52.192;4.628;2022-11-15T02:49:28;100682.94;;;16.66;58.99
71601;BME280;59446;52.192;4.628;2022-11-15T02:51:54;100686.31;;;16.69;59.32
71601;BME280;59446;52.192;4.628;2022-11-15T02:54:24;100675.81;;;16.69;58.82
71601;BME280;59446;52.192;4.628;2022-11-15T02:56:57;100667.16;;;16.66;59.20
71601;BME280;59446;52.192;4.628;2022-11-15T03:04:58;100673.44;;;16.64;59.37
71601;BME280;59446;52.192;4.628;2022-11-15T03:07:34;100667.34;;;16.63;59.39
71601;BME280;59446;52.192;4.628;2022-11-15T03:10:06;100670.81;;;16.64;59.51
71601;BME280;59446;52.192;4.628;2022-11-15T03:17:36;100670.91;;;16.62;59.54
71601;BME280;59446;52.192;4.628;2022-11-15T03:20:05;100667.34;;;16.63;59.06
71601;BME280;59446;52.192;4.628;2022-11-15T03:22:36;100670.03;;;16.62;59.49
71601;BME280;59446;52.192;4.628;2022-11-15T03:25:06;100668.41;;;16.59;59.92
71601;BME280;59446;52.192;4.628;2022-11-15T03:27:45;100656.28;;;16.57;59.66
71601;BME280;59446;52.192;4.628;2022-11-15T03:30:12;100657.56;;;16.65;59.20
71601;BME280;59446;52.192;4.628;2022-11-15T03:32:43;100664.94;;;16.59;59.50
71601;BME280;59446;52.192;4.628;2022-11-15T03:35:13;100665.97;;;16.56;59.58
71601;BME280;59446;52.192;4.628;2022-11-15T03:37:45;100665.03;;;16.57;59.54
71601;BME280;59446;52.192;4.628;2022-11-15T03:40:15;100665.97;;;16.56;59.44
71601;BME280;59446;52.192;4.628;2022-11-15T03:43:02;100657.06;;;16.59;59.42
71601;BME280;59446;52.192;4.628;2022-11-15T03:45:49;100651.03;;;16.57;59.83
71601;BME280;59446;52.192;4.628;2022-11-15T03:48:20;100649.16;;;16.59;59.60
71601;BME280;59446;52.192;4.628;2022-11-15T03:50:47;100659.84;;;16.56;59.56
71601;BME280;59446;52.192;4.628;2022-11-15T03:53:13;100656.97;;;16.60;59.15
71601;BME280;59446;52.192;4.628;2022-11-15T03:55:38;100657.13;;;16.57;59.76
71601;BME280;59446;52.192;4.628;2022-11-15T03:58:04;100646.72;;;16.56;59.53
71601;BME280;59446;52.192;4.628;2022-11-15T04:00:30;100656.34;;;16.55;59.67
71601;BME280;59446;52.192;4.628;2022-11-15T04:02:55;100659.84;;;16.56;59.47
71601;BME280;59446;52.192;4.628;2022-11-15T04:05:21;100649.41;;;16.54;59.68
71601;BME280;59446;52.192;4.628;2022-11-15T04:07:46;100645.06;;;16.53;59.85
71601;BME280;59446;52.192;4.628;2022-11-15T04:10:12;100649.50;;;16.53;59.98
71601;BME280;59446;52.192;4.628;2022-11-15T04:12:40;100645.84;;;16.55;59.54
71601;BME280;59446;52.192;4.628;2022-11-15T04:15:19;100645.25;;;16.50;59.72
71601;BME280;59446;52.192;4.628;2022-11-15T04:17:47;100637.19;;;16.53;59.77
71601;BME280;59446;52.192;4.628;2022-11-15T04:20:20;100645.06;;;16.53;59.41
71601;BME280;59446;52.192;4.628;2022-11-15T04:23:11;100647.63;;;16.55;59.47
71601;BME280;59446;52.192;4.628;2022-11-15T04:25:58;100643.38;;;16.52;59.47
71601;BME280;59446;52.192;4.628;2022-11-15T04:28:24;100645.34;;;16.49;59.52
71601;BME280;59446;52.192;4.628;2022-11-15T04:30:50;100646.94;;;16.51;59.75
71601;BME280;59446;52.192;4.628;2022-11-15T04:33:15;100646.78;;;16.54;59.47
71601;BME280;59446;52.192;4.628;2022-11-15T04:35:42;100651.53;;;16.48;59.67
71601;BME280;59446;52.192;4.628;2022-11-15T04:38:09;100646.94;;;16.51;59.51
71601;BME280;59446;52.192;4.628;2022-11-15T04:40:35;100640.94;;;16.49;59.78
71601;BME280;59446;52.192;4.628;2022-11-15T04:43:01;100632.13;;;16.50;59.77
71601;BME280;59446;52.192;4.628;2022-11-15T04:45:26;100626.84;;;16.50;59.74
71601;BME280;59446;52.192;4.628;2022-11-15T04:47:52;100625.25;;;16.48;59.70
71601;BME280;59446;52.192;4.628;2022-11-15T04:50:17;100622.34;;;16.52;59.81
71601;BME280;59446;52.192;4.628;2022-11-15T04:52:50;100623.28;;;16.51;60.13
71601;BME280;59446;52.192;4.628;2022-11-15T04:55:16;100625.25;;;16.48;59.93
71601;BME280;59446;52.192;4.628;2022-11-15T04:57:41;100624.31;;;16.49;59.71
71601;BME280;59446;52.192;4.628;2022-11-15T05:00:10;100635.09;;;16.44;60.38
71601;BME280;59446;52.192;4.628;2022-11-15T05:02:35;100640.94;;;16.49;59.83
71601;BME280;59446;52.192;4.628;2022-11-15T05:05:19;100643.81;;;16.45;59.70
71601;BME280;59446;52.192;4.628;2022-11-15T05:07:45;100649.16;;;16.43;59.64
71601;BME280;59446;52.192;4.628;2022-11-15T05:10:11;100649.16;;;16.43;60.30
71601;BME280;59446;52.192;4.628;2022-11-15T05:12:36;100651.63;;;16.46;59.70
71601;BME280;59446;52.192;4.628;2022-11-15T05:15:02;100658.47;;;16.49;59.78
71601;BME280;59446;52.192;4.628;2022-11-15T05:17:28;100655.00;;;16.48;60.03
71601;BME280;59446;52.192;4.628;2022-11-15T05:19:53;100666.63;;;16.44;59.65
71601;BME280;59446;52.192;4.628;2022-11-15T05:22:19;100665.03;;;16.42;60.25
71601;BME280;59446;52.192;4.628;2022-11-15T05:24:44;100661.56;;;16.41;60.03
71601;BME280;59446;52.192;4.628;2022-11-15T05:27:10;100661.47;;;16.43;59.76
71601;BME280;59446;52.192;4.628;2022-11-15T05:29:35;100661.63;;;16.40;59.79
71601;BME280;59446;52.192;4.628;2022-11-15T05:32:01;100666.13;;;16.38;60.40
71601;BME280;59446;52.192;4.628;2022-11-15T05:34:28;100662.66;;;16.37;60.14
71601;BME280;59446;52.192;4.628;2022-11-15T05:36:53;100669.25;;;16.44;60.20
71601;BME280;59446;52.192;4.628;2022-11-15T05:39:18;100666.81;;;16.41;59.86
71601;BME280;59446;52.192;4.628;2022-11-15T05:41:52;100664.09;;;16.43;59.91
71601;BME280;59446;52.192;4.628;2022-11-15T05:44:22;100675.44;;;16.43;60.29
71601;BME280;59446;52.192;4.628;2022-11-15T05:46:50;100668.69;;;16.39;59.90
71601;BME280;59446;52.192;4.628;2022-11-15T05:49:21;100672.91;;;16.42;59.59
71601;BME280;59446;52.192;4.628;2022-11-15T05:51:48;100671.22;;;16.41;60.02
71601;BME280;59446;52.192;4.628;2022-11-15T05:54:14;100666.53;;;16.46;60.13
71601;BME280;59446;52.192;4.628;2022-11-15T05:56:39;100659.84;;;16.40;60.13
71601;BME280;59446;52.192;4.628;2022-11-15T05:59:05;100661.63;;;16.40;59.98
71601;BME280;59446;52.192;4.628;2022-11-15T06:01:32;100664.44;;;16.36;59.91
71601;BME280;59446;52.192;4.628;2022-11-15T06:03:57;100669.69;;;16.36;60.26
71601;BME280;59446;52.192;4.628;2022-11-15T06:06:23;100674.69;;;16.41;59.90
71601;BME280;59446;52.192;4.628;2022-11-15T06:08:48;100671.38;;;16.38;60.04
71601;BME280;59446;52.192;4.628;2022-11-15T06:11:14;100673.00;;;16.40;59.81
71601;BME280;59446;52.192;4.628;2022-11-15T06:13:39;100676.56;;;16.39;59.77
71601;BME280;59446;52.192;4.628;2022-11-15T06:16:05;100683.06;;;16.32;59.94
71601;BME280;59446;52.192;4.628;2022-11-15T06:18:34;100676.56;;;16.39;59.72
71601;BME280;59446;52.192;4.628;2022-11-15T06:21:00;100681.81;;;16.39;60.34
71601;BME280;59446;52.192;4.628;2022-11-15T06:23:25;100681.06;;;16.37;60.09
71601;BME280;59446;52.192;4.628;2022-11-15T06:25:51;100673.25;;;16.35;60.39
71601;BME280;59446;52.192;4.628;2022-11-15T06:28:16;100683.84;;;16.34;60.62
71601;BME280;59446;52.192;4.628;2022-11-15T06:30:41;100685.38;;;16.38;59.83
71601;BME280;59446;52.192;4.628;2022-11-15T06:33:07;100688.00;;;16.38;60.03
71601;BME280;59446;52.192;4.628;2022-11-15T06:35:34;100695.22;;;16.34;59.96
71601;BME280;59446;52.192;4.628;2022-11-15T06:38:06;100695.22;;;16.34;60.42
71601;BME280;59446;52.192;4.628;2022-11-15T06:40:36;100688.69;;;16.42;59.71
71601;BME280;59446;52.192;4.628;2022-11-15T06:43:03;100696.06;;;16.35;60.30
71601;BME280;59446;52.192;4.628;2022-11-15T06:45:29;100696.16;;;16.33;60.05
71601;BME280;59446;52.192;4.628;2022-11-15T06:47:54;100697.00;;;16.34;60.31
71601;BME280;59446;52.192;4.628;2022-11-15T06:50:20;100704.25;;;16.29;60.29
71601;BME280;59446;52.192;4.628;2022-11-15T06:52:45;100698.59;;;16.36;60.12
71601;BME280;59446;52.192;4.628;2022-11-15T06:55:10;100709.44;;;16.30;60.18
71601;BME280;59446;52.192;4.628;2022-11-15T06:57:36;100712.91;;;16.31;60.44
71601;BME280;59446;52.192;4.628;2022-11-15T07:00:05;100714.59;;;16.32;60.35
71601;BME280;59446;52.192;4.628;2022-11-15T07:02:31;100720.78;;;16.31;60.37
71601;BME280;59446;52.192;4.628;2022-11-15T07:04:56;100715.31;;;16.35;59.88
71601;BME280;59446;52.192;4.628;2022-11-15T07:07:21;100709.34;;;16.32;60.43
71601;BME280;59446;52.192;4.628;2022-11-15T07:09:47;100709.28;;;16.33;60.62
71601;BME280;59446;52.192;4.628;2022-11-15T07:12:12;100719.84;;;16.32;60.19
71601;BME280;59446;52.192;4.628;2022-11-15T07:14:38;100707.56;;;16.32;60.85
71601;BME280;59446;52.192;4.628;2022-11-15T07:17:04;100704.44;;;16.42;60.49
71601;BME280;59446;52.192;4.628;2022-11-15T07:19:30;100705.78;;;16.49;60.58
71601;BME280;59446;52.192;4.628;2022-11-15T07:21:56;100709.72;;;16.57;60.51
71601;BME280;59446;52.192;4.628;2022-11-15T07:24:21;100710.38;;;16.61;60.29
71601;BME280;59446;52.192;4.628;2022-11-15T07:26:46;100714.56;;;16.65;60.32
71601;BME280;59446;52.192;4.628;2022-11-15T07:29:12;100709.22;;;16.66;59.90
71601;BME280;59446;52.192;4.628;2022-11-15T07:31:37;100705.56;;;16.69;59.96
71601;BME280;59446;52.192;4.628;2022-11-15T07:34:03;100704.38;;;16.75;59.92
71601;BME280;59446;52.192;4.628;2022-11-15T07:36:28;100702.34;;;16.80;60.22
71601;BME280;59446;52.192;4.628;2022-11-15T07:38:53;100701.75;;;16.75;59.66
71601;BME280;59446;52.192;4.628;2022-11-15T07:41:19;100694.22;;;16.69;59.87
71601;BME280;59446;52.192;4.628;2022-11-15T07:43:44;100703.28;;;16.63;60.29
71601;BME280;59446;52.192;4.628;2022-11-15T07:46:09;100694.56;;;16.62;60.19
71601;BME280;59446;52.192;4.628;2022-11-15T07:48:36;100694.69;;;16.59;59.81
71601;BME280;59446;52.192;4.628;2022-11-15T07:51:02;100693.09;;;16.57;59.70
71601;BME280;59446;52.192;4.628;2022-11-15T07:53:28;100693.09;;;16.57;60.04
71601;BME280;59446;52.192;4.628;2022-11-15T07:55:53;100698.09;;;16.61;59.70
71601;BME280;59446;52.192;4.628;2022-11-15T07:58:19;100690.19;;;16.61;60.36
71601;BME280;59446;52.192;4.628;2022-11-15T08:00:45;100689.53;;;16.58;60.16
71601;BME280;59446;52.192;4.628;2022-11-15T08:03:12;100687.84;;;16.57;59.90
71601;BME280;59446;52.192;4.628;2022-11-15T08:05:39;100686.19;;;16.54;59.70
71601;BME280;59446;52.192;4.628;2022-11-15T08:08:05;100687.44;;;16.64;60.11
71601;BME280;59446;52.192;4.628;2022-11-15T08:10:31;100676.13;;;16.78;59.43
71601;BME280;59446;52.192;4.628;2022-11-15T08:13:04;100668.13;;;16.95;59.23
71601;BME280;59446;52.192;4.628;2022-11-15T08:15:31;100670.97;;;17.07;58.97
71601;BME280;59446;52.192;4.628;2022-11-15T08:17:57;100671.66;;;17.10;59.36
71601;BME280;59446;52.192;4.628;2022-11-15T08:20:24;100666.47;;;17.09;59.40
71601;BME280;59446;52.192;4.628;2022-11-15T08:22:49;100669.41;;;17.18;59.50
71601;BME280;59446;52.192;4.628;2022-11-15T08:25:15;100671.59;;;17.26;59.02
71601;BME280;59446;52.192;4.628;2022-11-15T08:27:40;100669.63;;;17.30;59.26
71601;BME280;59446;52.192;4.628;2022-11-15T08:30:06;100661.75;;;17.30;59.23
71601;BME280;59446;52.192;4.628;2022-11-15T08:32:32;100656.94;;;17.36;59.18
71601;BME280;59446;52.192;4.628;2022-11-15T08:34:57;100654.03;;;17.41;59.15
71601;BME280;59446;52.192;4.628;2022-11-15T08:37:23;100653.19;;;17.40;59.28
71601;BME280;59446;52.192;4.628;2022-11-15T08:39:48;100654.88;;;17.41;59.17
71601;BME280;59446;52.192;4.628;2022-11-15T08:42:13;100653.69;;;17.47;59.10
71601;BME280;59446;52.192;4.628;2022-11-15T08:44:41;100655.53;;;17.45;59.31
71601;BME280;59446;52.192;4.628;2022-11-15T08:47:06;100650.28;;;17.45;59.33
71601;BME280;59446;52.192;4.628;2022-11-15T08:49:32;100646.91;;;17.43;59.58
71601;BME280;59446;52.192;4.628;2022-11-15T08:51:57;100649.34;;;17.46;59.16
71601;BME280;59446;52.192;4.628;2022-11-15T08:54:22;100646.91;;;17.43;59.52
71601;BME280;59446;52.192;4.628;2022-11-15T08:56:48;100637.41;;;17.40;59.84
71601;BME280;59446;52.192;4.628;2022-11-15T08:59:13;100642.56;;;17.42;60.20
71601;BME280;59446;52.192;4.628;2022-11-15T09:01:38;100645.00;;;17.45;60.35
71601;BME280;59446;52.192;4.628;2022-11-15T09:04:04;100634.97;;;17.51;59.90
71601;BME280;59446;52.192;4.628;2022-11-15T09:06:30;100634.25;;;17.64;60.03
71601;BME280;59446;52.192;4.628;2022-11-15T09:08:56;100632.66;;;17.75;60.19
71601;BME280;59446;52.192;4.628;2022-11-15T09:11:22;100634.16;;;17.94;59.49
71601;BME280;59446;52.192;4.628;2022-11-15T09:13:49;100630.53;;;18.09;58.80
71601;BME280;59446;52.192;4.628;2022-11-15T09:16:14;100631.47;;;18.22;58.52
71601;BME280;59446;52.192;4.628;2022-11-15T09:18:40;100628.47;;;18.14;58.64
71601;BME280;59446;52.192;4.628;2022-11-15T09:21:06;100631.78;;;18.17;58.65
71601;BME280;59446;52.192;4.628;2022-11-15T09:23:32;100636.53;;;18.25;58.74
71601;BME280;59446;52.192;4.628;2022-11-15T09:26:01;100634.06;;;18.36;58.32
71601;BME280;59446;52.192;4.628;2022-11-15T09:28:28;100636.16;;;18.45;57.89
71601;BME280;59446;52.192;4.628;2022-11-15T09:30:58;100640.28;;;18.49;58.15
71601;BME280;59446;52.192;4.628;2022-11-15T09:33:24;100637.75;;;18.48;58.16
71601;BME280;59446;52.192;4.628;2022-11-15T09:35:49;100638.38;;;18.52;58.06
71601;BME280;59446;52.192;4.628;2022-11-15T09:38:15;100643.72;;;18.64;57.67
71601;BME280;59446;52.192;4.628;2022-11-15T09:40:40;100642.97;;;18.62;57.93
71601;BME280;59446;52.192;4.628;2022-11-15T09:43:27;100643.31;;;18.70;57.77
71601;BME280;59446;52.192;4.628;2022-11-15T09:46:38;100643.63;;;18.66;57.70
71601;BME280;59446;52.192;4.628;2022-11-15T09:49:09;100642.03;;;18.63;57.85
71601;BME280;59446;52.192;4.628;2022-11-15T09:51:43;100644.78;;;18.62;57.80
71601;BME280;59446;52.192;4.628;2022-11-15T09:54:34;100640.13;;;18.65;57.57
71601;BME280;59446;52.192;4.628;2022-11-15T10:03:10;100616.50;;;18.64;57.47
71601;BME280;59446;52.192;4.628;2022-11-15T10:05:42;100624.94;;;18.69;57.43
71601;BME280;59446;52.192;4.628;2022-11-15T10:11:10;100600.06;;;18.73;57.66
71601;BME280;59446;52.192;4.628;2022-11-15T10:13:40;100587.19;;;18.81;56.88
71601;BME280;59446;52.192;4.628;2022-11-15T10:19:04;100590.50;;;18.85;56.66
71601;BME280;59446;52.192;4.628;2022-11-15T10:24:10;100585.97;;;18.87;56.90
71601;BME280;59446;52.192;4.628;2022-11-15T10:26:36;100575.19;;;18.90;57.17
71601;BME280;59446;52.192;4.628;2022-11-15T10:29:01;100572.88;;;18.85;56.90
71601;BME280;59446;52.192;4.628;2022-11-15T10:31:28;100568.00;;;18.92;56.72
71601;BME280;59446;52.192;4.628;2022-11-15T10:34:20;100574.25;;;19.03;56.19
71601;BME280;59446;52.192;4.628;2022-11-15T10:36:54;100573.41;;;19.03;56.27
71601;BME280;59446;52.192;4.628;2022-11-15T10:39:20;100561.78;;;18.93;56.59
71601;BME280;59446;52.192;4.628;2022-11-15T10:41:45;100566.84;;;18.96;56.94
71601;BME280;59446;52.192;4.628;2022-11-15T10:44:25;100562.00;;;18.90;57.13
71601;BME280;59446;52.192;4.628;2022-11-15T10:49:25;100551.88;;;18.96;56.79
71601;BME280;59446;52.192;4.628;2022-11-15T10:52:19;100550.91;;;18.97;56.85
71601;BME280;59446;52.192;4.628;2022-11-15T10:57:38;100541.53;;;18.93;56.63
71601;BME280;59446;52.192;4.628;2022-11-15T11:00:07;100535.50;;;18.91;57.03
71601;BME280;59446;52.192;4.628;2022-11-15T11:02:59;100536.25;;;18.93;57.18
71601;BME280;59446;52.192;4.628;2022-11-15T11:05:37;100529.81;;;18.97;56.86
71601;BME280;59446;52.192;4.628;2022-11-15T11:08:23;100543.53;;;19.02;56.86
71601;BME280;59446;52.192;4.628;2022-11-15T11:10:53;100534.03;;;19.00;56.82
71601;BME280;59446;52.192;4.628;2022-11-15T11:13:27;100529.59;;;19.00;57.05
71601;BME280;59446;52.192;4.628;2022-11-15T11:16:05;100541.84;;;19.01;56.75
71601;BME280;59446;52.192;4.628;2022-11-15T11:18:38;100528.53;;;19.03;56.74
71601;BME280;59446;52.192;4.628;2022-11-15T11:21:13;100526.56;;;19.06;56.79
71601;BME280;59446;52.192;4.628;2022-11-15T11:23:58;100521.78;;;19.12;56.54
71601;BME280;59446;52.192;4.628;2022-11-15T11:29:34;100511.84;;;19.15;56.38
71601;BME280;59446;52.192;4.628;2022-11-15T11:37:27;100470.34;;;19.17;56.32
71601;BME280;59446;52.192;4.628;2022-11-15T11:46:00;100455.38;;;19.18;56.61
71601;BME280;59446;52.192;4.628;2022-11-15T11:48:44;100458.50;;;19.23;56.49
71601;BME280;59446;52.192;4.628;2022-11-15T11:51:19;100458.50;;;19.23;56.39
71601;BME280;59446;52.192;4.628;2022-11-15T11:53:52;100475.00;;;19.26;56.31
71601;BME280;59446;52.192;4.628;2022-11-15T11:56:32;100465.69;;;19.21;56.09
71601;BME280;59446;52.192;4.628;2022-11-15T11:59:16;100462.94;;;19.22;56.45
71601;BME280;59446;52.192;4.628;2022-11-15T12:01:44;100458.44;;;19.24;56.06
71601;BME280;59446;52.192;4.628;2022-11-15T12:04:20;100442.50;;;19.26;56.32
71601;BME280;59446;52.192;4.628;2022-11-15T12:07:03;100446.16;;;19.23;56.18
71601;BME280;59446;52.192;4.628;2022-11-15T12:14:50;100430.78;;;19.30;56.13
71601;BME280;59446;52.192;4.628;2022-11-15T12:17:22;100425.38;;;19.31;55.86
71601;BME280;59446;52.192;4.628;2022-11-15T12:19:48;100413.03;;;19.32;55.96
71601;BME280;59446;52.192;4.628;2022-11-15T12:22:21;100405.97;;;19.32;55.73
71601;BME280;59446;52.192;4.628;2022-11-15T12:24:54;100405.13;;;19.32;55.93
71601;BME280;59446;52.192;4.628;2022-11-15T12:27:35;100400.56;;;19.34;55.92
71601;BME280;59446;52.192;4.628;2022-11-15T12:30:08;100394.44;;;19.33;55.92
71601;BME280;59446;52.192;4.628;2022-11-15T12:32:37;100394.94;;;19.38;56.02
71601;BME280;59446;52.192;4.628;2022-11-15T12:35:06;100394.00;;;19.39;56.19
71601;BME280;59446;52.192;4.628;2022-11-15T12:37:48;100386.56;;;19.45;56.44
71601;BME280;59446;52.192;4.628;2022-11-15T12:40:25;100379.16;;;19.50;55.80
71601;BME280;59446;52.192;4.628;2022-11-15T12:42:58;100371.97;;;19.52;55.92
71601;BME280;59446;52.192;4.628;2022-11-15T12:45:33;100361.84;;;19.46;55.45
71601;BME280;59446;52.192;4.628;2022-11-15T12:51:00;100350.28;;;19.35;55.82
71601;BME280;59446;52.192;4.628;2022-11-15T12:53:27;100357.25;;;19.36;55.38
71601;BME280;59446;52.192;4.628;2022-11-15T12:58:28;100353.66;;;19.37;55.26
71601;BME280;59446;52.192;4.628;2022-11-15T13:01:06;100345.72;;;19.37;55.25
71601;BME280;59446;52.192;4.628;2022-11-15T13:03:32;100351.84;;;19.38;55.28
71601;BME280;59446;52.192;4.628;2022-11-15T13:06:01;100347.53;;;19.37;55.43
71601;BME280;59446;52.192;4.628;2022-11-15T13:08:45;100331.56;;;19.38;55.57
71601;BME280;59446;52.192;4.628;2022-11-15T13:11:51;100329.50;;;19.31;55.42
71601;BME280;59446;52.192;4.628;2022-11-15T13:19:53;100326.22;;;19.27;55.65
71601;BME280;59446;52.192;4.628;2022-11-15T13:22:18;100320.22;;;19.25;55.53
71601;BME280;59446;52.192;4.628;2022-11-15T13:25:03;100321.16;;;19.24;55.58
71601;BME280;59446;52.192;4.628;2022-11-15T13:27:29;100307.53;;;19.30;55.38
71601;BME280;59446;52.192;4.628;2022-11-15T13:29:55;100315.03;;;19.24;55.59
71601;BME280;59446;52.192;4.628;2022-11-15T13:32:20;100310.50;;;19.26;55.69
71601;BME280;59446;52.192;4.628;2022-11-15T13:34:48;100302.47;;;19.27;56.06
71601;BME280;59446;52.192;4.628;2022-11-15T13:39:45;100290.75;;;19.19;55.84
71601;BME280;59446;52.192;4.628;2022-11-15T13:42:15;100294.13;;;19.21;55.72
71601;BME280;59446;52.192;4.628;2022-11-15T13:44:55;100279.97;;;19.22;55.37
71601;BME280;59446;52.192;4.628;2022-11-15T13:47:20;100278.81;;;19.26;55.67
71601;BME280;59446;52.192;4.628;2022-11-15T13:49:46;100269.50;;;19.33;55.26
71601;BME280;59446;52.192;4.628;2022-11-15T13:52:13;100270.34;;;19.33;55.17
71601;BME280;59446;52.192;4.628;2022-11-15T13:54:55;100265.56;;;19.38;55.34
71601;BME280;59446;52.192;4.628;2022-11-15T13:57:29;100260.03;;;19.42;55.17
71601;BME280;59446;52.192;4.628;2022-11-15T14:00:05;100250.44;;;19.40;55.03
71601;BME280;59446;52.192;4.628;2022-11-15T14:02:32;100250.44;;;19.40;54.84
71601;BME280;59446;52.192;4.628;2022-11-15T14:05:14;100238.69;;;19.45;54.99
71601;BME280;59446;52.192;4.628;2022-11-15T14:07:53;100239.66;;;19.44;54.97
71601;BME280;59446;52.192;4.628;2022-11-15T14:10:34;100223.06;;;19.42;55.40
71601;BME280;59446;52.192;4.628;2022-11-15T14:13:01;100224.66;;;19.44;55.15
71601;BME280;59446;52.192;4.628;2022-11-15T14:15:32;100215.16;;;19.42;54.94